createdAt,value
2019-05-01T00:01:36.980Z,100.00
2019-05-01T00:04:23.787Z,100.00
2019-05-01T00:07:03.998Z,100.00
2019-05-01T00:09:34.103Z,100.00
2019-05-01T00:12:03.624Z,100.00
2019-05-01T00:14:33.172Z,100.00
2019-05-01T00:17:02.786Z,100.00
2019-05-01T00:19:32.344Z,100.00
2019-05-01T00:22:01.815Z,100.00
2019-05-01T00:24:31.319Z,100.00
2019-05-01T00:27:00.795Z,100.00
2019-05-01T00:29:30.363Z,100.00
2019-05-01T00:31:59.838Z,100.00
2019-05-01T00:34:29.361Z,100.00
2019-05-01T00:36:59.886Z,100.00
2019-05-01T00:39:29.376Z,100.00
2019-05-01T00:41:58.856Z,100.00
2019-05-01T00:44:28.382Z,100.00
2019-05-01T00:46:57.852Z,100.00
2019-05-01T00:49:28.208Z,100.00
2019-05-01T00:51:57.751Z,100.00
2019-05-01T00:54:28.045Z,100.00
2019-05-01T00:57:08.105Z,100.00
2019-05-01T00:59:45.172Z,100.00
2019-05-01T01:02:31.213Z,100.00
2019-05-01T01:05:00.727Z,100.00
2019-05-01T01:07:30.210Z,100.00
2019-05-01T01:09:59.695Z,100.00
2019-05-01T01:12:29.189Z,100.00
2019-05-01T01:14:58.708Z,100.00
2019-05-01T01:17:29.433Z,100.00
2019-05-01T01:19:58.936Z,100.00
2019-05-01T01:22:28.854Z,100.00
2019-05-01T01:24:58.411Z,100.00
2019-05-01T01:27:28.067Z,100.00
2019-05-01T01:29:58.030Z,100.00
2019-05-01T01:32:27.540Z,100.00
2019-05-01T01:34:57.097Z,100.00
2019-05-01T01:37:26.567Z,100.00
2019-05-01T01:39:56.128Z,100.00
2019-05-01T01:42:26.827Z,100.00
2019-05-01T01:45:00.999Z,100.00
2019-05-01T01:47:30.547Z,100.00
2019-05-01T01:50:00.242Z,100.00
2019-05-01T01:52:30.071Z,100.00
2019-05-01T01:54:59.694Z,100.00
2019-05-01T01:57:29.494Z,100.00
2019-05-01T01:59:59.265Z,100.00
2019-05-01T02:02:33.277Z,100.00
2019-05-01T02:05:12.994Z,100.00
2019-05-01T02:07:42.825Z,100.00
2019-05-01T02:10:12.601Z,100.00
2019-05-01T02:12:42.849Z,100.00
2019-05-01T02:15:12.682Z,100.00
2019-05-01T02:17:42.162Z,100.00
2019-05-01T02:20:12.685Z,100.00
2019-05-01T02:22:42.257Z,100.00
2019-05-01T02:25:13.344Z,100.00
2019-05-01T02:27:48.492Z,100.00
2019-05-01T02:30:19.638Z,100.00
2019-05-01T02:32:49.828Z,100.00
2019-05-01T02:35:19.966Z,100.00
2019-05-01T02:37:50.546Z,100.00
2019-05-01T02:40:42.829Z,100.00
2019-05-01T02:43:17.386Z,100.00
2019-05-01T02:45:51.169Z,100.00
2019-05-01T02:48:23.057Z,100.00
2019-05-01T02:50:56.443Z,100.00
2019-05-01T02:53:27.767Z,100.00
2019-05-01T02:56:13.728Z,100.00
2019-05-01T02:58:46.036Z,100.00
2019-05-01T03:01:16.302Z,100.00
2019-05-01T03:03:46.609Z,100.00
2019-05-01T03:06:16.371Z,100.00
2019-05-01T03:08:46.272Z,100.00
2019-05-01T03:11:15.770Z,100.00
2019-05-01T03:13:47.717Z,100.00
2019-05-01T03:16:18.461Z,100.00
2019-05-01T03:18:53.389Z,100.00
2019-05-01T03:21:24.818Z,100.00
2019-05-01T03:24:01.794Z,100.00
2019-05-01T03:26:31.848Z,100.00
2019-05-01T03:29:01.345Z,100.00
2019-05-01T03:31:30.916Z,100.00
2019-05-01T03:34:00.491Z,100.00
2019-05-01T03:36:30.283Z,100.00
2019-05-01T03:39:00.409Z,100.00
2019-05-01T03:41:30.082Z,100.00
2019-05-01T03:43:59.726Z,100.00
2019-05-01T03:46:29.658Z,100.00
2019-05-01T03:48:59.583Z,100.00
2019-05-01T03:51:29.204Z,100.00
2019-05-01T03:53:59.270Z,100.00
2019-05-01T03:56:29.712Z,100.00
2019-05-01T03:58:59.923Z,100.00
2019-05-01T04:01:37.432Z,100.00
2019-05-01T04:04:08.997Z,100.00
2019-05-01T04:06:39.948Z,100.00
2019-05-01T04:09:09.571Z,100.00
2019-05-01T04:11:39.286Z,100.00
2019-05-01T04:14:09.706Z,100.00
2019-05-01T04:16:40.775Z,100.00
2019-05-01T04:19:11.323Z,100.00
2019-05-01T04:21:43.080Z,100.00
2019-05-01T04:24:12.573Z,100.00
2019-05-01T04:26:42.688Z,100.00
2019-05-01T04:29:14.898Z,100.00
2019-05-01T04:31:53.645Z,100.00
2019-05-01T04:34:33.786Z,100.00
2019-05-01T04:37:06.119Z,100.00
2019-05-01T04:39:35.872Z,100.00
2019-05-01T04:42:05.433Z,100.00
2019-05-01T04:44:35.191Z,100.00
2019-05-01T04:47:04.944Z,100.00
2019-05-01T04:49:34.553Z,100.00
2019-05-01T04:52:04.100Z,100.00
2019-05-01T04:54:33.693Z,100.00
2019-05-01T04:57:03.272Z,100.00
2019-05-01T04:59:33.722Z,100.00
2019-05-01T05:02:05.500Z,100.00
2019-05-01T05:04:35.061Z,100.00
2019-05-01T05:07:04.763Z,100.00
2019-05-01T05:09:38.731Z,100.00
2019-05-01T05:12:10.541Z,100.00
2019-05-01T05:14:45.002Z,100.00
2019-05-01T05:17:16.283Z,100.00
2019-05-01T05:19:46.175Z,100.00
2019-05-01T05:22:16.732Z,100.00
2019-05-01T05:24:47.144Z,100.00
2019-05-01T05:27:18.077Z,100.00
2019-05-01T05:29:49.102Z,100.00
2019-05-01T05:32:21.035Z,100.00
2019-05-01T05:34:54.043Z,100.00
2019-05-01T05:37:28.226Z,82.62
2019-05-01T05:40:00.109Z,86.08
2019-05-01T05:42:30.802Z,83.71
2019-05-01T05:45:00.634Z,78.99
2019-05-01T05:47:30.878Z,73.24
2019-05-01T05:50:00.360Z,59.72
2019-05-01T05:52:33.322Z,68.65
2019-05-01T05:55:11.358Z,63.38
2019-05-01T05:57:55.158Z,62.63
2019-05-01T06:00:34.291Z,63.94
2019-05-01T06:03:17.230Z,64.31
2019-05-01T06:05:54.348Z,66.66
2019-05-01T06:08:28.004Z,58.37
2019-05-01T06:11:16.610Z,58.27
2019-05-01T06:14:01.142Z,59.30
2019-05-01T06:16:34.586Z,59.11
2019-05-01T06:19:14.526Z,70.91
2019-05-01T06:21:44.993Z,61.17
2019-05-01T06:24:16.290Z,57.32
2019-05-01T06:26:46.716Z,50.03
2019-05-01T06:29:16.484Z,50.58
2019-05-01T06:31:46.059Z,50.75
2019-05-01T06:34:15.763Z,53.85
2019-05-01T06:36:49.579Z,55.78
2019-05-01T06:39:16.578Z,51.36
2019-05-01T06:41:46.081Z,45.78
2019-05-01T06:44:24.965Z,47.02
2019-05-01T06:47:03.246Z,49.25
2019-05-01T06:49:32.901Z,47.79
2019-05-01T06:52:06.369Z,43.43
2019-05-01T06:54:36.975Z,42.96
2019-05-01T06:57:07.115Z,42.95
2019-05-01T06:59:38.694Z,43.33
2019-05-01T07:02:10.315Z,43.37
2019-05-01T07:04:40.321Z,41.10
2019-05-01T07:07:24.758Z,41.23
2019-05-01T07:09:48.785Z,40.13
2019-05-01T07:12:15.670Z,40.31
2019-05-01T07:14:47.116Z,39.68
2019-05-01T07:17:16.933Z,35.14
2019-05-01T07:20:05.162Z,33.48
2019-05-01T07:22:37.127Z,33.29
2019-05-01T07:25:08.543Z,33.99
2019-05-01T07:27:38.115Z,35.13
2019-05-01T07:30:15.851Z,34.85
2019-05-01T07:32:45.544Z,32.44
2019-05-01T07:35:15.109Z,30.29
2019-05-01T07:37:44.826Z,32.35
2019-05-01T07:40:14.694Z,34.26
2019-05-01T07:42:48.198Z,33.18
2019-05-01T07:45:29.026Z,33.56
2019-05-01T07:48:00.961Z,32.63
2019-05-01T07:50:32.616Z,30.98
2019-05-01T07:53:02.115Z,29.50
2019-05-01T07:55:37.661Z,28.47
2019-05-01T07:58:15.147Z,32.47
2019-05-01T08:00:54.563Z,29.59
2019-05-01T08:03:24.086Z,28.59
2019-05-01T08:05:53.614Z,27.63
2019-05-01T08:08:23.114Z,29.08
2019-05-01T08:10:52.586Z,27.39
2019-05-01T08:13:22.070Z,30.46
2019-05-01T08:15:51.609Z,31.46
2019-05-01T08:18:36.206Z,28.04
2019-05-01T08:21:13.449Z,28.58
2019-05-01T08:23:47.175Z,32.26
2019-05-01T08:26:14.208Z,25.47
2019-05-01T08:29:02.937Z,22.17
2019-05-01T08:31:35.136Z,25.45
2019-05-01T08:34:09.546Z,27.13
2019-05-01T08:36:42.577Z,24.01
2019-05-01T08:39:12.402Z,31.39
2019-05-01T08:41:41.718Z,26.00
2019-05-01T08:44:11.189Z,29.19
2019-05-01T08:46:42.339Z,27.84
2019-05-01T08:49:22.021Z,28.74
2019-05-01T08:51:51.487Z,31.23
2019-05-01T08:54:21.175Z,30.69
2019-05-01T08:56:53.100Z,30.24
2019-05-01T08:59:23.889Z,28.22
2019-05-01T09:02:08.458Z,28.47
2019-05-01T09:04:25.397Z,21.30
2019-05-01T09:06:55.668Z,21.00
2019-05-01T09:09:25.135Z,20.64
2019-05-01T09:11:54.842Z,22.07
2019-05-01T09:14:25.396Z,24.79
2019-05-01T09:16:54.918Z,26.77
2019-05-01T09:19:24.438Z,28.07
2019-05-01T09:21:53.904Z,27.32
2019-05-01T09:24:27.986Z,20.98
2019-05-01T09:27:08.116Z,20.77
2019-05-01T09:29:46.790Z,23.08
2019-05-01T09:32:18.697Z,28.88
2019-05-01T09:34:47.605Z,25.60
2019-05-01T09:37:17.089Z,25.64
2019-05-01T09:39:47.432Z,22.09
2019-05-01T09:42:22.677Z,21.35
2019-05-01T09:44:48.364Z,21.00
2019-05-01T09:47:18.060Z,25.42
2019-05-01T09:49:48.740Z,22.06
2019-05-01T09:52:36.857Z,22.12
2019-05-01T09:55:09.783Z,28.49
2019-05-01T09:57:41.503Z,28.25
2019-05-01T10:00:12.383Z,20.84
2019-05-01T10:02:43.945Z,23.13
2019-05-01T10:05:13.581Z,20.05
2019-05-01T10:07:43.055Z,18.33
2019-05-01T10:10:12.749Z,21.66
2019-05-01T10:12:47.041Z,26.85
2019-05-01T10:15:13.587Z,21.18
2019-05-01T10:17:43.063Z,30.51
2019-05-01T10:20:12.794Z,31.57
2019-05-01T10:22:42.264Z,25.74
2019-05-01T10:25:13.496Z,32.45
2019-05-01T10:27:53.774Z,22.17
2019-05-01T10:30:41.100Z,22.83
2019-05-01T10:33:17.917Z,20.33
2019-05-01T10:35:49.042Z,19.84
2019-05-01T10:38:18.523Z,26.29
2019-05-01T10:40:48.050Z,28.40
2019-05-01T10:43:17.548Z,21.45
2019-05-01T10:45:47.036Z,21.19
2019-05-01T10:48:16.599Z,21.71
2019-05-01T10:50:46.099Z,19.29
2019-05-01T10:53:15.702Z,21.88
2019-05-01T10:55:45.185Z,28.10
2019-05-01T10:58:17.943Z,29.96
2019-05-01T11:00:47.535Z,30.96
2019-05-01T11:03:17.041Z,29.82
2019-05-01T11:05:55.652Z,29.78
2019-05-01T11:08:18.735Z,28.02
2019-05-01T11:10:48.261Z,32.03
2019-05-01T11:13:17.739Z,28.51
2019-05-01T11:15:47.232Z,28.42
2019-05-01T11:18:16.772Z,20.37
2019-05-01T11:20:46.296Z,21.20
2019-05-01T11:23:15.801Z,24.91
2019-05-01T11:25:45.284Z,24.70
2019-05-01T11:28:14.760Z,27.48
2019-05-01T11:30:44.328Z,27.33
2019-05-01T11:33:15.449Z,28.59
2019-05-01T11:35:50.713Z,27.38
2019-05-01T11:38:21.873Z,28.95
2019-05-01T11:41:08.994Z,19.59
2019-05-01T11:43:38.499Z,26.97
2019-05-01T11:46:08.013Z,22.87
2019-05-01T11:48:37.712Z,23.55
2019-05-01T11:51:07.372Z,21.66
2019-05-01T11:53:36.842Z,23.79
2019-05-01T11:56:06.466Z,28.23
2019-05-01T11:58:35.978Z,30.27
2019-05-01T12:01:06.747Z,31.85
2019-05-01T12:03:36.221Z,28.38
2019-05-01T12:06:05.788Z,22.45
2019-05-01T12:08:35.270Z,20.56
2019-05-01T12:11:06.596Z,19.26
2019-05-01T12:13:43.635Z,21.37
2019-05-01T12:16:11.686Z,27.99
2019-05-01T12:18:41.165Z,28.64
2019-05-01T12:21:10.658Z,31.38
2019-05-01T12:23:40.175Z,27.94
2019-05-01T12:26:09.661Z,28.84
2019-05-01T12:28:39.415Z,22.80
2019-05-01T12:31:08.942Z,28.04
2019-05-01T12:33:38.428Z,29.15
2019-05-01T12:36:08.849Z,31.36
2019-05-01T12:38:38.351Z,29.73
2019-05-01T12:41:20.972Z,27.41
2019-05-01T12:43:50.450Z,29.88
2019-05-01T12:46:36.428Z,30.09
2019-05-01T12:49:06.449Z,26.76
2019-05-01T12:51:36.867Z,27.69
2019-05-01T12:54:24.023Z,28.73
2019-05-01T12:56:55.151Z,33.59
2019-05-01T12:59:24.663Z,29.98
2019-05-01T13:01:54.144Z,28.61
2019-05-01T13:04:24.701Z,29.12
2019-05-01T13:06:58.085Z,29.29
2019-05-01T13:09:27.556Z,32.48
2019-05-01T13:11:57.050Z,32.63
2019-05-01T13:14:26.557Z,34.06
2019-05-01T13:16:56.041Z,36.14
2019-05-01T13:19:25.520Z,30.03
2019-05-01T13:21:55.109Z,34.50
2019-05-01T13:24:24.612Z,30.40
2019-05-01T13:26:58.436Z,29.89
2019-05-01T13:29:29.561Z,32.77
2019-05-01T13:32:06.438Z,28.05
2019-05-01T13:34:35.934Z,29.18
2019-05-01T13:37:06.595Z,34.88
2019-05-01T13:39:36.150Z,27.77
2019-05-01T13:42:08.977Z,33.87
2019-05-01T13:44:38.158Z,36.97
2019-05-01T13:47:07.732Z,34.41
2019-05-01T13:49:37.198Z,28.83
2019-05-01T13:52:06.695Z,29.62
2019-05-01T13:54:36.254Z,37.13
2019-05-01T13:57:06.010Z,35.37
2019-05-01T13:59:35.553Z,35.59
2019-05-01T14:02:05.094Z,32.71
2019-05-01T14:04:34.865Z,30.77
2019-05-01T14:07:15.884Z,32.46
2019-05-01T14:09:35.969Z,35.47
2019-05-01T14:12:05.626Z,31.19
2019-05-01T14:14:35.092Z,33.16
2019-05-01T14:17:04.627Z,30.60
2019-05-01T14:19:35.787Z,30.49
2019-05-01T14:22:24.954Z,31.37
2019-05-01T14:24:58.840Z,30.85
2019-05-01T14:27:28.618Z,30.87
2019-05-01T14:29:58.180Z,31.74
2019-05-01T14:32:27.860Z,31.96
2019-05-01T14:34:57.348Z,37.08
2019-05-01T14:37:29.915Z,31.79
2019-05-01T14:39:58.032Z,30.89
2019-05-01T14:42:27.504Z,33.39
2019-05-01T14:44:57.033Z,31.54
2019-05-01T14:47:26.546Z,32.74
2019-05-01T14:49:56.061Z,31.37
2019-05-01T14:52:25.983Z,31.29
2019-05-01T14:54:55.489Z,34.03
2019-05-01T14:57:24.952Z,34.29
2019-05-01T14:59:54.495Z,37.80
2019-05-01T15:02:24.054Z,39.66
2019-05-01T15:04:54.220Z,36.10
2019-05-01T15:07:23.722Z,36.87
2019-05-01T15:09:53.198Z,35.57
2019-05-01T15:12:22.694Z,35.68
2019-05-01T15:14:53.818Z,37.53
2019-05-01T15:17:24.972Z,35.61
2019-05-01T15:20:01.967Z,34.37
2019-05-01T15:22:31.445Z,38.79
2019-05-01T15:25:00.964Z,40.71
2019-05-01T15:27:30.437Z,41.04
2019-05-01T15:29:59.978Z,35.65
2019-05-01T15:32:29.458Z,37.48
2019-05-01T15:35:00.054Z,39.34
2019-05-01T15:37:29.596Z,34.32
2019-05-01T15:40:00.730Z,32.15
2019-05-01T15:42:37.874Z,32.96
2019-05-01T15:45:08.145Z,32.54
2019-05-01T15:47:37.630Z,32.80
2019-05-01T15:50:08.728Z,31.96
2019-05-01T15:52:38.280Z,33.18
2019-05-01T15:55:09.039Z,35.76
2019-05-01T15:57:38.555Z,32.78
2019-05-01T16:00:11.087Z,33.09
2019-05-01T16:02:40.585Z,32.69
2019-05-01T16:05:10.247Z,36.54
2019-05-01T16:07:39.733Z,34.09
2019-05-01T16:10:12.207Z,31.74
2019-05-01T16:12:48.624Z,33.04
2019-05-01T16:15:19.836Z,31.56
2019-05-01T16:17:49.319Z,34.42
2019-05-01T16:20:18.874Z,34.97
2019-05-01T16:22:48.371Z,36.13
2019-05-01T16:25:18.026Z,35.86
2019-05-01T16:27:47.685Z,37.04
2019-05-01T16:30:19.339Z,38.90
2019-05-01T16:32:48.815Z,36.90
2019-05-01T16:35:18.307Z,37.59
2019-05-01T16:37:47.897Z,37.38
2019-05-01T16:40:17.691Z,38.68
2019-05-01T16:42:47.166Z,38.18
2019-05-01T16:45:16.779Z,37.66
2019-05-01T16:47:46.279Z,38.58
2019-05-01T16:50:16.026Z,36.12
2019-05-01T16:52:45.549Z,36.77
2019-05-01T16:55:15.448Z,37.61
2019-05-01T16:57:44.916Z,37.66
2019-05-01T17:00:15.818Z,38.25
2019-05-01T17:02:47.487Z,36.04
2019-05-01T17:05:18.827Z,36.02
2019-05-01T17:07:49.979Z,36.80
2019-05-01T17:10:29.944Z,34.99
2019-05-01T17:12:59.973Z,37.52
2019-05-01T17:15:36.738Z,38.02
2019-05-01T17:18:06.294Z,38.49
2019-05-01T17:20:35.774Z,38.35
2019-05-01T17:23:05.762Z,38.51
2019-05-01T17:25:35.939Z,38.14
2019-05-01T17:28:08.127Z,40.39
2019-05-01T17:30:43.098Z,40.77
2019-05-01T17:33:19.871Z,41.54
2019-05-01T17:35:44.008Z,44.26
2019-05-01T17:38:13.487Z,41.85
2019-05-01T17:40:43.046Z,43.09
2019-05-01T17:43:15.333Z,44.77
2019-05-01T17:45:44.953Z,44.25
2019-05-01T17:48:14.440Z,43.42
2019-05-01T17:50:43.912Z,44.82
2019-05-01T17:53:13.478Z,46.16
2019-05-01T17:55:43.033Z,45.78
2019-05-01T17:58:12.640Z,46.07
2019-05-01T18:00:56.085Z,50.11
2019-05-01T18:03:40.135Z,49.51
2019-05-01T18:06:14.514Z,82.97
2019-05-01T18:08:44.023Z,80.90
2019-05-01T18:11:15.681Z,89.43
2019-05-01T18:13:45.322Z,97.97
2019-05-01T18:16:15.073Z,100.00
2019-05-01T18:18:44.585Z,100.00
2019-05-01T18:21:14.292Z,100.00
2019-05-01T18:24:01.344Z,100.00
2019-05-01T18:26:32.478Z,100.00
2019-05-01T18:29:15.175Z,100.00
2019-05-01T18:31:44.800Z,100.00
2019-05-01T18:34:14.324Z,100.00
2019-05-01T18:36:54.939Z,100.00
2019-05-01T18:39:27.362Z,100.00
2019-05-01T18:41:58.525Z,100.00
2019-05-01T18:44:28.122Z,100.00
2019-05-01T18:46:57.622Z,100.00
2019-05-01T18:49:27.210Z,100.00
2019-05-01T18:51:56.771Z,100.00
2019-05-01T18:54:30.350Z,100.00
2019-05-01T18:56:57.586Z,100.00
2019-05-01T18:59:27.109Z,100.00
2019-05-01T19:01:56.746Z,100.00
2019-05-01T19:04:26.287Z,100.00
2019-05-01T19:06:55.950Z,100.00
2019-05-01T19:09:30.318Z,100.00
2019-05-01T19:11:57.663Z,100.00
2019-05-01T19:14:29.140Z,100.00
2019-05-01T19:16:59.733Z,100.00
2019-05-01T19:19:29.254Z,100.00
2019-05-01T19:21:58.753Z,100.00
2019-05-01T19:24:32.422Z,100.00
2019-05-01T19:27:00.226Z,100.00
2019-05-01T19:29:32.193Z,100.00
2019-05-01T19:32:00.999Z,100.00
2019-05-01T19:34:30.478Z,100.00
2019-05-01T19:36:59.978Z,100.00
2019-05-01T19:39:42.431Z,100.00
2019-05-01T19:42:00.641Z,100.00
2019-05-01T19:44:30.150Z,100.00
2019-05-01T19:46:59.685Z,100.00
2019-05-01T19:49:30.658Z,100.00
2019-05-01T19:52:01.884Z,100.00
2019-05-01T19:54:31.521Z,100.00
2019-05-01T19:57:01.035Z,100.00
2019-05-01T19:59:30.502Z,100.00
2019-05-01T20:01:59.971Z,100.00
2019-05-01T20:04:29.530Z,100.00
2019-05-01T20:06:59.184Z,100.00
2019-05-01T20:09:28.727Z,100.00
2019-05-01T20:11:58.223Z,100.00
2019-05-01T20:14:27.808Z,100.00
2019-05-01T20:16:57.267Z,100.00
2019-05-01T20:19:26.893Z,100.00
2019-05-01T20:21:56.409Z,100.00
2019-05-01T20:24:25.880Z,100.00
2019-05-01T20:26:55.374Z,100.00
2019-05-01T20:29:24.845Z,100.00
2019-05-01T20:31:54.327Z,100.00
2019-05-01T20:34:23.834Z,100.00
2019-05-01T20:36:53.298Z,100.00
2019-05-01T20:39:23.871Z,100.00
2019-05-01T20:41:53.532Z,100.00
2019-05-01T20:44:25.418Z,100.00
2019-05-01T20:46:58.588Z,100.00
2019-05-01T20:49:25.397Z,100.00
2019-05-01T20:51:54.868Z,100.00
2019-05-01T20:54:24.351Z,100.00
2019-05-01T20:56:58.161Z,100.00
2019-05-01T20:59:27.649Z,100.00
2019-05-01T21:01:59.660Z,100.00
2019-05-01T21:04:35.558Z,100.00
2019-05-01T21:07:10.244Z,100.00
2019-05-01T21:09:47.667Z,100.00
2019-05-01T21:12:12.642Z,100.00
2019-05-01T21:14:45.289Z,100.00
2019-05-01T21:17:13.850Z,100.00
2019-05-01T21:19:44.398Z,100.00
2019-05-01T21:22:14.353Z,100.00
2019-05-01T21:24:44.505Z,100.00
2019-05-01T21:27:14.035Z,100.00
2019-05-01T21:29:44.536Z,100.00
2019-05-01T21:32:18.160Z,100.00
2019-05-01T21:34:45.299Z,100.00
2019-05-01T21:37:15.660Z,100.00
2019-05-01T21:39:45.162Z,100.00
2019-05-01T21:42:15.881Z,100.00
2019-05-01T21:44:45.889Z,100.00
2019-05-01T21:47:15.354Z,100.00
2019-05-01T21:49:44.919Z,100.00
2019-05-01T21:52:18.031Z,100.00
2019-05-01T21:54:45.608Z,100.00
2019-05-01T21:57:17.318Z,100.00
2019-05-01T21:59:48.106Z,100.00
2019-05-01T22:02:17.681Z,100.00
2019-05-01T22:04:47.641Z,100.00
2019-05-01T22:07:17.150Z,100.00
2019-05-01T22:09:50.426Z,100.00
2019-05-01T22:12:17.993Z,100.00
2019-05-01T22:14:52.121Z,100.00
2019-05-01T22:17:38.982Z,100.00
2019-05-01T22:20:10.899Z,100.00
2019-05-01T22:22:50.581Z,100.00
2019-05-01T22:25:27.801Z,100.00
2019-05-01T22:28:01.898Z,100.00
2019-05-01T22:30:48.979Z,100.00
2019-05-01T22:33:18.748Z,100.00
2019-05-01T22:35:52.396Z,100.00
2019-05-01T22:38:21.946Z,100.00
2019-05-01T22:41:06.175Z,100.00
2019-05-01T22:43:30.373Z,100.00
2019-05-01T22:46:01.572Z,100.00
2019-05-01T22:48:31.112Z,100.00
2019-05-01T22:51:02.241Z,100.00
2019-05-01T22:53:31.726Z,100.00
2019-05-01T22:56:02.266Z,100.00
2019-05-01T22:58:32.413Z,100.00
2019-05-01T23:01:02.205Z,100.00
2019-05-01T23:03:49.416Z,100.00
2019-05-01T23:06:19.682Z,100.00
2019-05-01T23:08:49.284Z,100.00
2019-05-01T23:11:20.392Z,100.00
2019-05-01T23:13:50.028Z,100.00
2019-05-01T23:16:21.213Z,100.00
2019-05-01T23:18:51.911Z,100.00
2019-05-01T23:21:21.922Z,100.00
2019-05-01T23:23:51.404Z,100.00
2019-05-01T23:26:20.913Z,100.00
2019-05-01T23:28:50.462Z,100.00
2019-05-01T23:31:20.418Z,100.00
2019-05-01T23:33:50.634Z,100.00
2019-05-01T23:36:23.846Z,100.00
2019-05-01T23:38:52.485Z,100.00
2019-05-01T23:41:24.771Z,100.00
2019-05-01T23:43:53.218Z,100.00
2019-05-01T23:46:22.689Z,100.00
2019-05-01T23:48:52.211Z,100.00
2019-05-01T23:51:23.613Z,100.00
2019-05-01T23:53:52.891Z,100.00
2019-05-01T23:56:22.364Z,100.00
2019-05-01T23:58:51.844Z,100.00
